Welwyn Garden City, United Kingdom
Current Conditions -  °F | °C
As of 1:20 PM on Friday 24 Oct 2014 (Local Time) from EGGW Reporting Station
Broken Clouds Broken Clouds  
Wind Chill: 59°   Ceiling: 1000
Heat Index: 59°   Visibility: 6mi
Dew Point: 57°   Wind: 9mph
Humidity: 94%   Direction: 210°SSW
Pressure: 29.91"   Gusts: NA
Location:  51.8°N, 0.21°W
Report Text: EGGW 241220Z 21008KT 9999 BKN010 15/14 Q1013
Loading
Personal Weather Stations






























Interactive Weather Map
Tropical Storm Tracking
New forecast layout! Learn more

10-Day Weather Forecast

Advertisements
Track Severe Weather on mobile